Flugplatz Lechfeld Airport

Bericht für ETSL

vom 25.10. um 17:20 UTC

Wind 3 kt aus 120°

Sichtweite 10 km oder mehr

aufgebrochene Bewölkung in 12000 ft

Temperatur 7.0°C

Taupunkt 5.0°C

Luftfeuchtigkeit 87%

Luftdruck 1021 hPa

ETSL 251720Z 12003KT 9999 BKN120 07/05 Q1021 BLU

Prognose für ETSL

vom 25.10. um 13:21 UTC

Zwischen 14:00 UTC und 23:00 UTC

variable Windrichtung mit 3 kt

Sichtweite 10 km oder mehr

keine signifikanten Wettererscheinungen

aufgebrochene Bewölkung in 15000 ft

TAF ETSL 251321Z 2514/2523 VRB03KT 9999 NSW BKN150 BY ETGL
Impressum